Southmayd, Texas
Current Conditions -  °F | °C
As of 1:35 PM on Friday 24 Oct 2014 (Local Time) from KGYI Reporting Station
Clear Clear  
Wind Chill: 80°   Ceiling: Unl
Heat Index: 81°   Visibility: 10mi
Dew Point: 63°   Wind: 8mph
Humidity: 57%   Direction: 190°S
Pressure: 30.12"   Gusts: 17mph
Location:  33.63°N, 96.77°W
Report Text: KGYI 241835Z AUTO 19007G15KT 10SM CLR 27/17 A3012 RMK AO2 T02650173
Loading
Personal Weather Stations






























Interactive Weather Map
Tropical Storm Tracking
New forecast layout! Learn more

10-Day Weather Forecast

Advertisements
Track Severe Weather on mobile